Time;durP1;ratioP1;P1;durP2;ratioP2;P2;SDS_P1;SDS_P2;PMS_P1;PMS_P2;Temp;Humidity;BMP_temperature;BMP_pressure;BME280_temperature;BME280_humidity;BME280_pressure;Samples;Min_cycle;Max_cycle;Signal;HPM_P1;HPM_P2
2024/01/07 00:01:20;;;;;;;0.73;0.60;;;17.00;48.10;;;;;;5148824;27;45308;-67
2024/01/07 00:03:47;;;;;;;0.70;0.70;;;17.00;48.10;;;;;;5148617;27;45325;-67
2024/01/07 00:06:14;;;;;;;0.80;0.80;;;16.90;48.10;;;;;;5146290;27;45321;-67
2024/01/07 00:08:42;;;;;;;0.73;0.73;;;16.90;48.20;;;;;;5148446;27;45497;-67
2024/01/07 00:11:09;;;;;;;0.63;0.63;;;16.90;48.20;;;;;;5148605;27;45460;-67
2024/01/07 00:13:36;;;;;;;0.95;0.70;;;16.90;48.20;;;;;;5149078;27;45255;-67
2024/01/07 00:16:03;;;;;;;0.82;0.82;;;16.90;48.30;;;;;;5148866;27;45263;-66
2024/01/07 00:18:30;;;;;;;0.60;0.60;;;16.80;48.30;;;;;;5148782;27;46469;-67
2024/01/07 00:20:56;;;;;;;0.60;0.60;;;16.80;48.30;;;;;;5148687;27;45499;-66
2024/01/07 00:23:24;;;;;;;0.95;0.60;;;16.80;48.30;;;;;;5148597;27;45323;-66
2024/01/07 00:25:52;;;;;;;0.70;0.70;;;16.80;48.40;;;;;;5148911;27;45490;-66
2024/01/07 00:28:19;;;;;;;0.75;0.70;;;16.80;48.40;;;;;;5148372;27;45446;-66
2024/01/07 00:30:45;;;;;;;0.70;0.70;;;16.70;48.40;;;;;;5148567;27;45442;-67
2024/01/07 00:33:13;;;;;;;1.17;0.80;;;16.70;48.40;;;;;;5146064;27;45399;-66
2024/01/07 00:35:43;;;;;;;0.70;0.70;;;16.70;48.40;;;;;;5148522;27;45464;-66
2024/01/07 00:38:09;;;;;;;0.75;0.60;;;16.70;48.50;;;;;;5148146;27;45325;-66
2024/01/07 00:40:37;;;;;;;1.00;1.00;;;16.70;48.50;;;;;;5147696;27;45386;-66
2024/01/07 00:43:06;;;;;;;0.68;0.68;;;16.60;48.50;;;;;;5148354;27;45372;-66
2024/01/07 00:45:33;;;;;;;0.70;0.70;;;16.60;48.50;;;;;;5148639;27;45547;-66
2024/01/07 00:47:59;;;;;;;0.88;0.88;;;16.60;48.50;;;;;;5147803;27;46648;-67
2024/01/07 00:50:26;;;;;;;0.90;0.90;;;16.60;48.60;;;;;;5148107;27;45392;-67
2024/01/07 00:52:53;;;;;;;0.88;0.88;;;16.60;48.60;;;;;;5148218;27;45367;-67
2024/01/07 00:55:22;;;;;;;1.52;0.75;;;16.50;48.60;;;;;;5145571;27;45482;-66
2024/01/07 00:57:48;;;;;;;0.80;0.80;;;16.60;48.60;;;;;;5147688;27;46702;-67
2024/01/07 01:00:18;;;;;;;0.95;0.90;;;16.50;48.60;;;;;;5147796;27;45269;-67
2024/01/07 01:02:45;;;;;;;0.60;0.60;;;16.50;48.70;;;;;;5148014;27;45307;-66
2024/01/07 01:05:12;;;;;;;0.60;0.60;;;16.50;48.70;;;;;;5147553;27;45325;-67
2024/01/07 01:07:39;;;;;;;0.93;0.80;;;16.50;48.70;;;;;;5147801;27;45741;-66
2024/01/07 01:10:07;;;;;;;0.75;0.73;;;16.40;48.70;;;;;;5147813;27;45196;-66
2024/01/07 01:12:33;;;;;;;0.77;0.77;;;16.50;48.80;;;;;;5147887;27;45375;-65
2024/01/07 01:15:00;;;;;;;0.70;0.70;;;16.40;48.70;;;;;;5148035;27;45340;-66
2024/01/07 01:17:28;;;;;;;0.70;0.70;;;16.40;48.80;;;;;;5147603;27;46395;-66
2024/01/07 01:19:55;;;;;;;0.70;0.70;;;16.40;48.80;;;;;;5147717;27;45255;-66
2024/01/07 01:22:22;;;;;;;1.45;1.00;;;16.40;48.80;;;;;;5147682;27;45412;-66
2024/01/07 01:24:51;;;;;;;0.93;0.80;;;16.40;48.80;;;;;;5148186;27;45297;-66
2024/01/07 01:27:17;;;;;;;0.80;0.80;;;16.40;49.40;;;;;;5147470;27;47593;-67
2024/01/07 01:29:44;;;;;;;0.80;0.80;;;16.40;48.80;;;;;;5147663;27;45245;-67
2024/01/07 01:32:11;;;;;;;0.70;0.70;;;16.40;48.90;;;;;;5147748;27;45178;-67
2024/01/07 01:34:40;;;;;;;0.90;0.90;;;16.30;48.80;;;;;;5147874;27;45342;-67
2024/01/07 01:37:09;;;;;;;1.15;0.90;;;16.30;48.80;;;;;;5147235;27;45322;-67
2024/01/07 01:39:36;;;;;;;0.80;0.80;;;16.30;48.90;;;;;;5147537;27;45185;-66
2024/01/07 01:42:03;;;;;;;0.85;0.85;;;16.30;48.90;;;;;;5147716;27;45486;-66
2024/01/07 01:44:31;;;;;;;1.20;1.00;;;16.30;48.90;;;;;;5147698;27;45492;-66
2024/01/07 01:47:00;;;;;;;0.88;0.85;;;16.30;49.00;;;;;;5147045;27;45488;-67
2024/01/07 01:49:27;;;;;;;1.08;0.93;;;16.20;48.90;;;;;;5147273;27;45309;-67
2024/01/07 01:51:55;;;;;;;1.48;0.90;;;16.20;49.00;;;;;;5147425;27;45372;-66
2024/01/07 01:54:22;;;;;;;0.80;0.80;;;16.20;49.00;;;;;;5147734;27;45500;-65
2024/01/07 01:56:49;;;;;;;1.20;0.82;;;16.20;49.00;;;;;;5146947;27;45474;-66
2024/01/07 01:59:16;;;;;;;0.80;0.80;;;16.20;49.10;;;;;;5147075;27;45388;-66
2024/01/07 02:01:43;;;;;;;1.27;0.95;;;16.20;49.00;;;;;;5147260;27;45386;-65
2024/01/07 02:04:09;;;;;;;1.00;0.90;;;16.20;49.10;;;;;;5147177;27;45414;-65
2024/01/07 02:06:36;;;;;;;0.90;0.82;;;16.10;49.10;;;;;;5146955;27;45459;-65
2024/01/07 02:09:05;;;;;;;0.80;0.80;;;16.10;49.10;;;;;;5146992;27;45316;-66
2024/01/07 02:11:32;;;;;;;1.00;1.00;;;16.10;49.10;;;;;;5144547;27;45336;-65
2024/01/07 02:13:58;;;;;;;0.90;0.90;;;16.10;49.10;;;;;;5147120;27;45436;-66
2024/01/07 02:16:25;;;;;;;0.80;0.80;;;16.10;49.10;;;;;;5146836;27;47275;-67
2024/01/07 02:18:52;;;;;;;0.95;0.95;;;16.10;49.10;;;;;;5150359;27;45323;-66
2024/01/07 02:21:19;;;;;;;1.10;1.00;;;16.10;49.20;;;;;;5150446;27;45266;-65
2024/01/07 02:23:46;;;;;;;1.10;1.10;;;16.10;49.20;;;;;;5150661;27;45310;-66
2024/01/07 02:26:14;;;;;;;0.90;0.90;;;16.00;49.10;;;;;;5150148;27;46375;-65
2024/01/07 02:28:41;;;;;;;0.80;0.80;;;16.00;49.20;;;;;;5150714;27;45612;-65
2024/01/07 02:31:08;;;;;;;0.90;0.90;;;16.00;49.10;;;;;;5150617;27;45342;-65
2024/01/07 02:33:34;;;;;;;0.80;0.80;;;16.00;49.20;;;;;;5150409;27;45324;-66
2024/01/07 02:36:01;;;;;;;1.00;1.00;;;16.00;49.10;;;;;;5150236;27;47383;-65
2024/01/07 02:38:28;;;;;;;1.20;1.10;;;16.00;49.20;;;;;;5150093;27;45285;-65
2024/01/07 02:40:55;;;;;;;1.02;1.02;;;16.00;49.20;;;;;;5150113;27;45295;-67
2024/01/07 02:43:23;;;;;;;0.98;0.93;;;15.90;49.10;;;;;;5150271;27;45315;-65
2024/01/07 02:45:50;;;;;;;0.95;0.90;;;15.90;49.20;;;;;;5149883;27;46411;-65
2024/01/07 02:48:17;;;;;;;1.15;1.08;;;15.90;49.20;;;;;;5149919;27;45249;-65
2024/01/07 02:50:44;;;;;;;1.00;1.00;;;15.90;49.20;;;;;;5150161;27;45285;-66
2024/01/07 02:53:11;;;;;;;1.00;0.90;;;15.90;49.30;;;;;;5150466;27;45344;-66
2024/01/07 02:55:38;;;;;;;1.20;1.10;;;15.90;49.30;;;;;;5150092;27;48215;-67
2024/01/07 02:58:05;;;;;;;0.90;0.82;;;15.90;49.30;;;;;;5150286;27;45302;-66
2024/01/07 03:00:33;;;;;;;1.10;1.10;;;15.80;49.20;;;;;;5150346;27;45352;-66
2024/01/07 03:03:00;;;;;;;0.80;0.80;;;15.80;49.20;;;;;;5150581;27;45486;-66
2024/01/07 03:05:29;;;;;;;0.88;0.88;;;15.80;49.30;;;;;;5149763;27;46401;-66
2024/01/07 03:07:56;;;;;;;1.05;0.95;;;15.80;49.30;;;;;;5149776;27;45282;-66
2024/01/07 03:10:22;;;;;;;1.10;0.90;;;15.80;49.30;;;;;;5150045;27;45278;-66
2024/01/07 03:12:49;;;;;;;0.90;0.90;;;15.80;49.30;;;;;;5150269;27;45453;-65
2024/01/07 03:15:16;;;;;;;0.80;0.80;;;15.70;49.30;;;;;;5149660;27;45388;-66
2024/01/07 03:17:45;;;;;;;0.98;0.95;;;15.70;49.30;;;;;;5149560;27;45327;-65
2024/01/07 03:20:12;;;;;;;0.98;0.90;;;15.70;49.30;;;;;;5149847;27;45249;-65
2024/01/07 03:22:39;;;;;;;0.90;0.90;;;15.70;49.30;;;;;;5149918;27;45475;-65
2024/01/07 03:25:07;;;;;;;0.98;0.98;;;15.70;50.00;;;;;;5149651;27;45595;-65
2024/01/07 03:27:34;;;;;;;1.10;1.10;;;15.70;49.30;;;;;;5149215;27;45349;-66
2024/01/07 03:30:01;;;;;;;0.93;0.93;;;15.70;49.40;;;;;;5149819;27;45240;-65
2024/01/07 03:32:28;;;;;;;0.70;0.70;;;15.60;49.30;;;;;;5146686;27;45321;-65
2024/01/07 03:34:56;;;;;;;0.98;0.93;;;15.60;49.30;;;;;;5149672;27;45480;-66
2024/01/07 03:37:23;;;;;;;1.10;1.00;;;15.60;49.30;;;;;;5149428;27;45389;-66
2024/01/07 03:39:50;;;;;;;1.85;1.00;;;15.60;49.40;;;;;;5149446;27;45364;-66
2024/01/07 03:42:17;;;;;;;1.00;1.00;;;15.60;49.40;;;;;;5149569;27;45254;-66
2024/01/07 03:44:43;;;;;;;1.15;1.05;;;15.60;49.40;;;;;;5149326;27;45400;-66
2024/01/07 03:47:10;;;;;;;1.00;1.00;;;15.50;49.40;;;;;;5149525;27;45387;-65
2024/01/07 03:49:37;;;;;;;0.80;0.80;;;15.50;49.40;;;;;;5149374;27;45376;-65
2024/01/07 03:52:06;;;;;;;1.17;1.08;;;15.50;49.40;;;;;;5149401;27;45255;-66
2024/01/07 03:54:33;;;;;;;1.77;1.00;;;15.50;49.40;;;;;;5149293;27;47465;-65
2024/01/07 03:57:00;;;;;;;1.10;1.10;;;15.50;49.40;;;;;;5149003;27;45385;-65
2024/01/07 03:59:28;;;;;;;1.00;1.00;;;15.50;49.40;;;;;;5149259;27;45351;-65
2024/01/07 04:01:56;;;;;;;1.17;1.00;;;15.50;49.40;;;;;;5149213;27;45543;-65
2024/01/07 04:04:23;;;;;;;1.17;0.88;;;15.50;50.10;;;;;;5148832;27;45462;-65
2024/01/07 04:06:50;;;;;;;0.75;0.75;;;15.50;49.50;;;;;;5148977;27;45398;-65
2024/01/07 04:09:18;;;;;;;1.10;1.08;;;15.50;49.60;;;;;;5149034;27;45389;-65
2024/01/07 04:11:45;;;;;;;0.93;0.90;;;15.50;49.60;;;;;;5146369;27;45376;-65
2024/01/07 04:14:14;;;;;;;0.85;0.85;;;15.50;49.60;;;;;;5148361;27;46405;-66
2024/01/07 04:16:41;;;;;;;0.95;0.95;;;15.50;49.40;;;;;;5148372;27;45298;-65
2024/01/07 04:19:08;;;;;;;0.90;0.90;;;15.60;49.30;;;;;;5149048;27;45412;-66
2024/01/07 04:21:35;;;;;;;1.00;0.90;;;15.70;49.10;;;;;;5146181;27;45315;-66
2024/01/07 04:24:02;;;;;;;1.10;1.00;;;15.80;49.00;;;;;;5148411;27;46448;-66
2024/01/07 04:26:30;;;;;;;0.63;0.63;;;15.90;48.70;;;;;;5148427;27;45618;-66
2024/01/07 04:28:57;;;;;;;0.90;0.90;;;16.00;48.60;;;;;;5148998;27;45346;-66
2024/01/07 04:31:24;;;;;;;0.93;0.93;;;16.10;48.30;;;;;;5149138;27;45266;-65
2024/01/07 04:33:51;;;;;;;1.10;1.00;;;16.20;48.10;;;;;;5148403;27;45336;-66
2024/01/07 04:36:18;;;;;;;0.82;0.82;;;16.30;47.90;;;;;;5148350;27;45330;-65
2024/01/07 04:38:45;;;;;;;1.05;1.05;;;16.40;47.70;;;;;;5148581;27;45397;-65
2024/01/07 04:41:12;;;;;;;0.95;0.70;;;16.50;47.40;;;;;;5147497;27;45360;-65
2024/01/07 04:43:40;;;;;;;0.93;0.90;;;16.60;47.20;;;;;;5148324;27;45448;-65
2024/01/07 04:46:07;;;;;;;0.80;0.80;;;16.80;47.00;;;;;;5148541;27;45268;-64
2024/01/07 04:48:34;;;;;;;1.00;1.00;;;16.90;46.80;;;;;;5148835;27;45555;-64
2024/01/07 04:51:01;;;;;;;1.48;0.80;;;17.00;46.50;;;;;;5148755;27;45502;-64
2024/01/07 04:53:27;;;;;;;1.13;1.13;;;17.10;46.40;;;;;;5148063;27;45527;-64
2024/01/07 04:55:54;;;;;;;1.15;1.05;;;17.20;46.20;;;;;;5148145;27;45344;-64
2024/01/07 04:58:21;;;;;;;1.00;0.95;;;17.30;46.00;;;;;;5148045;27;45252;-65
2024/01/07 05:00:48;;;;;;;0.98;0.98;;;17.30;45.90;;;;;;5148571;27;45319;-65
2024/01/07 05:03:15;;;;;;;0.93;0.90;;;17.40;45.80;;;;;;5148019;27;46239;-64
2024/01/07 05:05:42;;;;;;;1.13;1.00;;;17.40;45.60;;;;;;5147910;27;45455;-64
2024/01/07 05:08:09;;;;;;;1.00;0.90;;;17.50;45.50;;;;;;5147978;27;45430;-65
2024/01/07 05:10:36;;;;;;;0.70;0.70;;;17.60;45.40;;;;;;5148473;27;45227;-65
2024/01/07 05:13:05;;;;;;;1.05;1.05;;;17.70;45.30;;;;;;5147846;27;45452;-64
2024/01/07 05:15:32;;;;;;;0.90;0.90;;;17.70;45.10;;;;;;5147807;27;45397;-65
2024/01/07 05:18:01;;;;;;;0.80;0.80;;;17.80;45.00;;;;;;5148172;27;45294;-64
2024/01/07 05:20:28;;;;;;;0.82;0.82;;;17.80;44.90;;;;;;5148336;27;45636;-66
2024/01/07 05:22:55;;;;;;;0.85;0.82;;;18.00;44.80;;;;;;5147454;27;46596;-65
2024/01/07 05:25:21;;;;;;;0.90;0.90;;;18.00;44.70;;;;;;5147922;27;45380;-64
2024/01/07 05:27:48;;;;;;;1.00;1.00;;;18.10;44.60;;;;;;5147794;27;45354;-64
2024/01/07 05:30:15;;;;;;;1.50;0.80;;;18.10;44.50;;;;;;5147902;27;45202;-64
2024/01/07 05:32:42;;;;;;;0.93;0.90;;;18.10;44.40;;;;;;5147462;27;46399;-64
2024/01/07 05:35:10;;;;;;;1.38;1.08;;;18.20;44.40;;;;;;5147388;27;45277;-64
2024/01/07 05:37:37;;;;;;;0.80;0.80;;;18.20;44.30;;;;;;5147624;27;45302;-64
2024/01/07 05:40:06;;;;;;;0.70;0.70;;;18.20;44.10;;;;;;5147406;27;45390;-64
2024/01/07 05:42:32;;;;;;;0.80;0.80;;;18.30;44.20;;;;;;5147450;27;47392;-65
2024/01/07 05:44:59;;;;;;;0.70;0.70;;;18.30;44.10;;;;;;5147952;27;45185;-65
2024/01/07 05:47:26;;;;;;;0.63;0.63;;;18.30;44.10;;;;;;5148435;27;45379;-65
2024/01/07 05:49:53;;;;;;;0.93;0.88;;;18.30;44.00;;;;;;5148252;27;45872;-65
2024/01/07 05:52:21;;;;;;;0.77;0.77;;;18.40;44.00;;;;;;5151043;27;46620;-65
2024/01/07 05:54:48;;;;;;;1.38;0.95;;;18.40;44.10;;;;;;5151364;27;45243;-64
2024/01/07 05:57:15;;;;;;;1.30;1.10;;;18.40;44.00;;;;;;5152082;27;45175;-65
2024/01/07 05:59:42;;;;;;;0.80;0.80;;;18.40;44.00;;;;;;5152087;27;45317;-65
2024/01/07 06:02:09;;;;;;;0.70;0.70;;;18.40;43.90;;;;;;5151666;27;45325;-65
2024/01/07 06:04:36;;;;;;;1.60;0.90;;;18.40;43.90;;;;;;5151017;27;45425;-65
2024/01/07 06:07:03;;;;;;;0.70;0.70;;;18.40;43.90;;;;;;5151072;27;45197;-65
2024/01/07 06:09:32;;;;;;;0.73;0.73;;;18.40;43.80;;;;;;5151216;27;45457;-65
2024/01/07 06:11:58;;;;;;;2.03;1.02;;;18.40;43.80;;;;;;5150563;27;45489;-65
2024/01/07 06:14:25;;;;;;;0.65;0.65;;;18.40;43.80;;;;;;5150712;27;45334;-65
2024/01/07 06:16:52;;;;;;;1.15;0.90;;;18.40;43.80;;;;;;5150931;27;45305;-65
2024/01/07 06:19:19;;;;;;;0.60;0.60;;;18.40;43.80;;;;;;5151164;27;45567;-65
2024/01/07 06:21:46;;;;;;;0.93;0.90;;;18.40;43.70;;;;;;5151293;27;45500;-66
2024/01/07 06:24:13;;;;;;;0.75;0.75;;;18.40;43.70;;;;;;5150138;27;45367;-66
2024/01/07 06:26:41;;;;;;;0.70;0.70;;;18.40;43.70;;;;;;5151057;27;45361;-66
2024/01/07 06:29:09;;;;;;;0.60;0.60;;;18.50;43.80;;;;;;5151723;27;45220;-66
2024/01/07 06:31:36;;;;;;;0.70;0.70;;;18.50;43.70;;;;;;5151288;27;47452;-66
2024/01/07 06:34:03;;;;;;;0.85;0.73;;;18.50;43.70;;;;;;5151139;27;45422;-66
2024/01/07 06:36:30;;;;;;;0.50;0.50;;;18.50;43.60;;;;;;5151095;27;45562;-66
2024/01/07 06:38:56;;;;;;;0.50;0.50;;;18.50;43.70;;;;;;5151262;27;45301;-66
2024/01/07 06:41:23;;;;;;;0.60;0.60;;;18.50;43.60;;;;;;5150390;27;46925;-65
2024/01/07 06:43:54;;;;;;;0.60;0.60;;;18.50;43.60;;;;;;5150601;27;45191;-65
2024/01/07 06:46:21;;;;;;;0.68;0.68;;;18.50;43.60;;;;;;5150833;27;45355;-67
2024/01/07 06:48:48;;;;;;;0.70;0.70;;;18.50;43.60;;;;;;5150879;27;45358;-66
2024/01/07 06:51:15;;;;;;;0.70;0.70;;;18.50;43.60;;;;;;5150704;27;45176;-65
2024/01/07 06:53:42;;;;;;;0.65;0.65;;;18.50;43.50;;;;;;5150565;27;45450;-66
2024/01/07 06:56:09;;;;;;;1.13;0.80;;;18.50;43.50;;;;;;5150527;27;45381;-65
2024/01/07 06:58:36;;;;;;;0.77;0.77;;;18.50;43.60;;;;;;5150506;27;45554;-65
2024/01/07 07:01:04;;;;;;;0.77;0.70;;;18.50;43.60;;;;;;5150133;27;47555;-65
2024/01/07 07:03:31;;;;;;;0.88;0.70;;;18.50;43.60;;;;;;5149092;27;45356;-66
2024/01/07 07:05:58;;;;;;;0.73;0.73;;;18.60;43.50;;;;;;5149952;27;45494;-65
2024/01/07 07:08:25;;;;;;;0.60;0.60;;;18.50;43.50;;;;;;5149915;27;45400;-65
2024/01/07 07:10:51;;;;;;;0.70;0.70;;;18.60;43.50;;;;;;5150218;27;45255;-65
2024/01/07 07:13:18;;;;;;;0.70;0.70;;;18.60;43.50;;;;;;5150414;27;45392;-65
2024/01/07 07:15:45;;;;;;;0.80;0.80;;;18.60;43.40;;;;;;5150280;27;45325;-65
2024/01/07 07:18:13;;;;;;;0.57;0.57;;;18.60;43.40;;;;;;5150581;27;45383;-65
2024/01/07 07:20:41;;;;;;;0.50;0.50;;;18.60;43.30;;;;;;5150111;27;46469;-65
2024/01/07 07:23:08;;;;;;;0.50;0.50;;;18.70;43.40;;;;;;5150138;27;45133;-65
2024/01/07 07:25:34;;;;;;;0.65;0.65;;;18.70;43.30;;;;;;5150261;27;45244;-65
2024/01/07 07:28:02;;;;;;;0.57;0.57;;;18.70;43.20;;;;;;5150027;27;45167;-65
2024/01/07 07:30:29;;;;;;;0.98;0.95;;;18.70;43.20;;;;;;5149684;27;46728;-65
2024/01/07 07:32:56;;;;;;;1.00;0.75;;;18.80;43.20;;;;;;5149533;27;45350;-64
2024/01/07 07:35:25;;;;;;;0.63;0.60;;;18.80;43.00;;;;;;5149844;27;45317;-64
2024/01/07 07:37:52;;;;;;;0.93;0.85;;;18.80;43.00;;;;;;5149768;27;45339;-64
2024/01/07 07:40:18;;;;;;;0.85;0.73;;;18.90;43.00;;;;;;5149179;27;46732;-65
2024/01/07 07:42:45;;;;;;;1.25;0.80;;;18.90;43.60;;;;;;5149393;27;45422;-65
2024/01/07 07:45:12;;;;;;;1.00;0.90;;;19.00;43.40;;;;;;5149346;27;45271;-65
2024/01/07 07:47:41;;;;;;;0.88;0.88;;;19.00;43.50;;;;;;5149593;27;45414;-66
2024/01/07 07:50:10;;;;;;;5.00;1.10;;;19.10;42.90;;;;;;5148942;27;46385;-63
2024/01/07 07:52:38;;;;;;;0.98;0.70;;;19.20;42.80;;;;;;5149019;27;45388;-65
2024/01/07 07:55:06;;;;;;;0.93;0.60;;;19.20;42.70;;;;;;5149426;27;45277;-67
2024/01/07 07:57:33;;;;;;;0.85;0.80;;;19.20;42.60;;;;;;5149287;27;45286;-69
2024/01/07 08:00:00;;;;;;;1.30;0.82;;;19.20;42.60;;;;;;5146396;27;45287;-64
2024/01/07 08:02:27;;;;;;;1.38;1.25;;;19.30;42.70;;;;;;5149489;27;45432;-66
2024/01/07 08:04:54;;;;;;;0.60;0.60;;;19.30;42.40;;;;;;5148822;27;45141;-63
2024/01/07 08:07:21;;;;;;;1.88;1.30;;;19.30;42.40;;;;;;5149256;27;45305;-68
2024/01/07 08:09:49;;;;;;;8.98;1.00;;;19.30;42.50;;;;;;5148620;27;46394;-65
2024/01/07 08:12:16;;;;;;;1.60;1.48;;;19.30;42.50;;;;;;5148977;27;45295;-63
2024/01/07 08:14:42;;;;;;;1.13;1.05;;;19.30;42.50;;;;;;5148770;27;45278;-66
2024/01/07 08:17:09;;;;;;;2.20;1.25;;;19.30;42.90;;;;;;5148878;27;45235;-66
2024/01/07 08:19:37;;;;;;;4.22;1.65;;;19.20;42.70;;;;;;5148901;27;46318;-63
2024/01/07 08:22:04;;;;;;;2.35;1.58;;;19.30;42.90;;;;;;5148320;27;45421;-66
2024/01/07 08:24:31;;;;;;;2.22;1.63;;;19.20;42.80;;;;;;5148987;27;45394;-65
2024/01/07 08:26:59;;;;;;;2.53;1.40;;;19.20;43.00;;;;;;5148946;27;45243;-65
2024/01/07 08:29:26;;;;;;;1.55;1.45;;;19.00;42.90;;;;;;5148713;27;45389;-65
2024/01/07 08:31:53;;;;;;;2.30;1.40;;;19.00;43.20;;;;;;5148729;27;45378;-65
2024/01/07 08:34:20;;;;;;;1.58;1.38;;;18.90;43.30;;;;;;5148304;27;45438;-66
2024/01/07 08:36:46;;;;;;;1.67;1.58;;;18.80;43.40;;;;;;5149175;27;45311;-65
2024/01/07 08:39:15;;;;;;;2.10;1.40;;;18.80;43.50;;;;;;5148818;27;46402;-65
2024/01/07 08:41:42;;;;;;;1.50;1.40;;;18.70;43.70;;;;;;5148641;27;45281;-65
2024/01/07 08:44:11;;;;;;;2.40;1.35;;;18.60;43.70;;;;;;5148568;27;45361;-65
2024/01/07 08:46:37;;;;;;;1.60;1.30;;;18.60;43.90;;;;;;5148750;27;45245;-65
2024/01/07 08:49:05;;;;;;;3.75;1.70;;;18.60;43.90;;;;;;5148372;27;45297;-65
2024/01/07 08:51:31;;;;;;;1.38;0.90;;;18.60;43.90;;;;;;5148381;27;45293;-65
2024/01/07 08:53:59;;;;;;;1.40;1.10;;;18.60;43.90;;;;;;5148210;27;45336;-65
2024/01/07 08:56:26;;;;;;;1.25;1.15;;;18.60;43.80;;;;;;5148348;27;45405;-65
2024/01/07 08:58:53;;;;;;;1.52;1.35;;;18.70;43.80;;;;;;5147806;27;46209;-65
2024/01/07 09:01:21;;;;;;;1.42;1.27;;;18.60;43.70;;;;;;5148036;27;45192;-65
2024/01/07 09:03:48;;;;;;;0.93;0.93;;;18.70;44.30;;;;;;5148044;27;45521;-65
2024/01/07 09:06:15;;;;;;;1.00;1.00;;;18.70;43.60;;;;;;5148204;27;45376;-65
2024/01/07 09:08:42;;;;;;;2.15;1.10;;;18.70;43.60;;;;;;5147952;27;45363;-65
2024/01/07 09:11:11;;;;;;;2.10;1.00;;;18.70;43.50;;;;;;5148070;27;45344;-65
2024/01/07 09:13:37;;;;;;;2.33;1.23;;;18.80;43.50;;;;;;5148119;27;45329;-65
2024/01/07 09:16:05;;;;;;;2.80;1.33;;;18.80;43.50;;;;;;5147909;27;45476;-64
2024/01/07 09:18:33;;;;;;;1.13;1.00;;;18.80;43.40;;;;;;5147611;27;45369;-64
2024/01/07 09:21:00;;;;;;;1.08;1.00;;;18.80;43.30;;;;;;5144835;27;45256;-64
2024/01/07 09:23:26;;;;;;;1.40;1.30;;;18.90;43.40;;;;;;5148170;27;45294;-65
2024/01/07 09:25:53;;;;;;;1.58;1.00;;;18.90;43.40;;;;;;5149009;27;45445;-65
2024/01/07 09:28:20;;;;;;;1.50;1.20;;;18.90;43.20;;;;;;5151732;27;46283;-65
2024/01/07 09:30:47;;;;;;;1.25;1.00;;;18.90;43.20;;;;;;5151869;27;45354;-65
2024/01/07 09:33:15;;;;;;;1.67;1.30;;;19.00;43.20;;;;;;5152138;27;45339;-65
2024/01/07 09:35:43;;;;;;;1.10;1.00;;;19.00;43.20;;;;;;5151915;27;45251;-65
2024/01/07 09:38:10;;;;;;;1.10;1.00;;;19.00;43.20;;;;;;5151547;27;45454;-65
2024/01/07 09:40:39;;;;;;;1.55;1.10;;;19.00;43.10;;;;;;5151487;27;45370;-64
2024/01/07 09:43:06;;;;;;;1.35;0.98;;;19.00;43.10;;;;;;5151551;27;45128;-64
2024/01/07 09:45:33;;;;;;;1.40;1.30;;;19.00;43.10;;;;;;5151883;27;45315;-66
2024/01/07 09:47:59;;;;;;;1.55;1.40;;;19.00;43.10;;;;;;5151128;27;46619;-65
2024/01/07 09:50:26;;;;;;;1.33;1.17;;;19.10;43.00;;;;;;5151416;27;45350;-65
2024/01/07 09:52:54;;;;;;;1.20;1.10;;;19.00;42.90;;;;;;5151770;27;45344;-66
2024/01/07 09:55:27;;;;;;;1.08;0.98;;;19.00;43.00;;;;;;5151575;27;45306;-65
2024/01/07 09:57:54;;;;;;;1.98;1.08;;;19.10;43.00;;;;;;5151039;27;45270;-65
2024/01/07 10:00:21;;;;;;;1.10;1.00;;;19.10;43.00;;;;;;5151415;27;45219;-64
2024/01/07 10:02:48;;;;;;;1.67;1.20;;;19.10;42.90;;;;;;5151339;27;45190;-64
2024/01/07 10:05:18;;;;;;;1.27;1.17;;;19.10;42.90;;;;;;5150702;27;45421;-64
2024/01/07 10:07:44;;;;;;;2.20;1.60;;;19.10;42.90;;;;;;5151122;27;47234;-64
2024/01/07 10:10:16;;;;;;;1.10;1.00;;;19.10;42.90;;;;;;5151039;27;45247;-64
2024/01/07 10:12:44;;;;;;;1.63;1.38;;;19.10;42.90;;;;;;5151284;27;45487;-64
2024/01/07 10:15:11;;;;;;;1.40;1.30;;;19.10;42.90;;;;;;5151170;27;45341;-64
2024/01/07 10:17:39;;;;;;;1.40;1.30;;;19.10;42.90;;;;;;5150681;27;46721;-64
2024/01/07 10:20:09;;;;;;;1.83;1.60;;;19.10;42.90;;;;;;5150982;27;45406;-65
2024/01/07 10:22:36;;;;;;;1.40;1.23;;;19.10;43.00;;;;;;5151176;27;45316;-64
2024/01/07 10:25:03;;;;;;;1.70;1.30;;;19.10;43.10;;;;;;5151044;27;45280;-65
2024/01/07 10:27:34;;;;;;;1.50;1.33;;;19.10;43.10;;;;;;5150642;27;47578;-64
2024/01/07 10:30:01;;;;;;;1.60;1.25;;;19.00;43.10;;;;;;5150781;27;45306;-64
2024/01/07 10:32:29;;;;;;;1.60;1.20;;;18.90;43.20;;;;;;5151021;27;45192;-64
2024/01/07 10:34:59;;;;;;;2.28;1.45;;;18.90;43.20;;;;;;5150917;27;45361;-64
2024/01/07 10:37:25;;;;;;;1.55;1.20;;;18.90;43.40;;;;;;5148971;27;45306;-65
2024/01/07 10:39:52;;;;;;;1.25;1.13;;;18.80;43.40;;;;;;5150346;27;45229;-66
2024/01/07 10:42:19;;;;;;;1.73;1.35;;;18.80;43.50;;;;;;5149935;27;45466;-65
2024/01/07 10:44:47;;;;;;;2.80;1.35;;;18.80;43.60;;;;;;5150780;27;45465;-66
2024/01/07 10:47:14;;;;;;;1.88;1.40;;;18.70;43.60;;;;;;5150007;27;45418;-64
2024/01/07 10:49:42;;;;;;;3.85;1.45;;;18.70;43.70;;;;;;5150025;27;45271;-64
2024/01/07 10:52:11;;;;;;;1.48;1.38;;;18.60;43.90;;;;;;5150044;27;45365;-63
2024/01/07 10:54:37;;;;;;;1.60;1.50;;;18.60;44.00;;;;;;5150520;27;45355;-63
2024/01/07 10:57:08;;;;;;;2.25;1.65;;;18.60;44.00;;;;;;5149953;27;47497;-64
2024/01/07 10:59:35;;;;;;;1.38;1.27;;;18.60;44.10;;;;;;5150141;27;45385;-64
2024/01/07 11:02:04;;;;;;;2.88;1.40;;;18.50;44.10;;;;;;5150029;27;45325;-64
2024/01/07 11:04:34;;;;;;;2.70;1.60;;;18.50;44.20;;;;;;5147275;27;45297;-63
2024/01/07 11:07:17;;;;;;;1.38;1.27;;;18.50;44.30;;;;;;5149789;27;45370;-64
2024/01/07 11:09:47;;;;;;;1.67;1.40;;;18.50;44.30;;;;;;5149504;27;45389;-64
2024/01/07 11:12:14;;;;;;;1.52;1.40;;;18.50;44.20;;;;;;5149749;27;45386;-64
2024/01/07 11:14:45;;;;;;;1.52;1.40;;;18.50;44.10;;;;;;5150201;27;45188;-64
2024/01/07 11:17:14;;;;;;;1.60;1.40;;;18.60;44.10;;;;;;5149425;27;45486;-64
2024/01/07 11:19:52;;;;;;;1.45;1.20;;;18.60;44.00;;;;;;5149425;27;45256;-64
2024/01/07 11:22:24;;;;;;;1.48;1.38;;;18.70;43.90;;;;;;5149733;27;45303;-64
2024/01/07 11:24:51;;;;;;;1.58;1.30;;;18.80;43.90;;;;;;5149849;27;45478;-66
2024/01/07 11:27:18;;;;;;;1.27;1.17;;;18.80;43.70;;;;;;5149645;27;46326;-65
2024/01/07 11:29:45;;;;;;;1.50;1.40;;;18.90;43.60;;;;;;5149737;27;45473;-65
2024/01/07 11:32:15;;;;;;;1.65;1.38;;;18.90;43.50;;;;;;5149068;27;45279;-64
2024/01/07 11:34:43;;;;;;;1.60;1.15;;;18.90;43.40;;;;;;5128840;27;45297;-64
2024/01/07 11:37:11;;;;;;;2.65;1.40;;;19.00;43.40;;;;;;5136396;27;47029;-65
2024/01/07 11:39:38;;;;;;;2.35;1.48;;;19.00;43.30;;;;;;5149555;27;45386;-65
2024/01/07 11:42:05;;;;;;;1.83;1.15;;;19.10;43.20;;;;;;5149642;27;45198;-64
2024/01/07 11:44:35;;;;;;;1.85;1.45;;;19.10;43.10;;;;;;5149555;27;45285;-64
2024/01/07 11:47:02;;;;;;;1.42;1.33;;;19.10;43.10;;;;;;5149287;27;47317;-64
2024/01/07 11:49:30;;;;;;;1.45;1.17;;;19.20;43.00;;;;;;5148746;27;45972;-64
2024/01/07 11:51:57;;;;;;;1.30;1.20;;;19.20;43.00;;;;;;5149390;27;45304;-63
2024/01/07 11:54:24;;;;;;;1.45;1.30;;;19.20;42.90;;;;;;5149362;27;45393;-64
2024/01/07 11:56:50;;;;;;;1.95;1.40;;;19.20;42.90;;;;;;5148865;27;45424;-64
2024/01/07 11:59:17;;;;;;;1.52;1.20;;;19.20;42.80;;;;;;5149261;27;45367;-64
2024/01/07 12:01:44;;;;;;;1.20;1.10;;;19.30;42.80;;;;;;5149357;27;45352;-64
2024/01/07 12:04:12;;;;;;;0.93;0.93;;;19.30;42.80;;;;;;5149276;27;45467;-64
2024/01/07 12:06:40;;;;;;;1.45;1.20;;;19.30;42.80;;;;;;5148920;27;45339;-65
2024/01/07 12:09:07;;;;;;;1.75;1.42;;;19.30;42.70;;;;;;5148840;27;45393;-65
2024/01/07 12:11:34;;;;;;;1.55;1.30;;;19.30;42.70;;;;;;5149123;27;45330;-63
2024/01/07 12:14:01;;;;;;;2.78;1.20;;;19.30;42.70;;;;;;5149219;27;45568;-64
2024/01/07 12:16:28;;;;;;;1.55;1.45;;;19.30;42.70;;;;;;5148599;27;45281;-64
2024/01/07 12:18:55;;;;;;;1.60;1.48;;;19.30;42.70;;;;;;5148834;27;45362;-64
2024/01/07 12:21:22;;;;;;;1.35;1.13;;;19.30;42.80;;;;;;5148878;27;45474;-64
2024/01/07 12:23:52;;;;;;;2.13;1.30;;;19.30;42.90;;;;;;5148956;27;45578;-64
2024/01/07 12:26:19;;;;;;;1.13;1.05;;;19.30;42.90;;;;;;5148309;27;45455;-63
2024/01/07 12:28:46;;;;;;;0.98;0.98;;;19.20;42.90;;;;;;5148857;27;45367;-64
2024/01/07 12:31:13;;;;;;;1.73;1.25;;;19.20;42.90;;;;;;5148869;27;45460;-65
2024/01/07 12:33:41;;;;;;;1.60;1.40;;;19.10;43.00;;;;;;5148889;27;45403;-66
2024/01/07 12:36:08;;;;;;;1.98;1.55;;;19.10;43.10;;;;;;5147101;27;46307;-64
2024/01/07 12:38:37;;;;;;;2.08;1.40;;;19.00;43.20;;;;;;5148348;27;45727;-65
2024/01/07 12:41:05;;;;;;;1.10;1.00;;;19.00;43.20;;;;;;5147640;27;45351;-65
2024/01/07 12:43:32;;;;;;;2.08;1.30;;;18.90;43.30;;;;;;5148026;27;45390;-65
2024/01/07 12:46:04;;;;;;;2.28;1.13;;;18.90;43.40;;;;;;5146565;27;45546;-62
2024/01/07 12:48:30;;;;;;;1.30;1.20;;;18.80;43.50;;;;;;5147445;27;45461;-63